createdAt,value
2023-03-19T00:05:06.150Z,98748.2
2023-03-19T00:10:42.880Z,98746.3
2023-03-19T00:16:23.043Z,98747.4
2023-03-19T00:22:07.263Z,98746.6
2023-03-19T00:27:43.842Z,98752
2023-03-19T00:33:37.134Z,98757.4
2023-03-19T00:39:30.079Z,98759.6
2023-03-19T00:45:07.767Z,98762.2
2023-03-19T00:50:47.155Z,98766.8
2023-03-19T00:56:30.810Z,98774.8
2023-03-19T01:02:08.864Z,98776.9
2023-03-19T01:07:45.856Z,98781
2023-03-19T01:13:29.293Z,98783.5
2023-03-19T01:19:04.696Z,98787
2023-03-19T01:24:43.305Z,98793.8
2023-03-19T01:30:26.005Z,98792.7
2023-03-19T01:36:04.425Z,98794.4
2023-03-19T01:42:09.452Z,98794.5
2023-03-19T01:47:47.120Z,98789
2023-03-19T01:54:10.053Z,98786.4
2023-03-19T01:59:48.062Z,98787.1
2023-03-19T02:05:27.127Z,98790.4
2023-03-19T02:11:02.619Z,98781
2023-03-19T02:17:09.681Z,98783
2023-03-19T02:22:50.687Z,98783.4
2023-03-19T02:28:25.561Z,98785.1
2023-03-19T02:34:03.166Z,98788
2023-03-19T02:40:02.037Z,98786.4
2023-03-19T02:45:37.767Z,98792.3
2023-03-19T02:51:26.086Z,98794.5
2023-03-19T02:57:29.084Z,98803
2023-03-19T03:03:04.728Z,98800
2023-03-19T03:08:51.527Z,98803.5
2023-03-19T03:14:27.013Z,98798.1
2023-03-19T03:20:23.396Z,98797.4
2023-03-19T03:26:03.971Z,98801.3
2023-03-19T03:31:40.807Z,98798.1
2023-03-19T03:37:17.084Z,98800.6
2023-03-19T03:42:55.593Z,98802.6
2023-03-19T03:48:32.466Z,98807.9
2023-03-19T03:54:07.879Z,98809.7
2023-03-19T03:59:48.172Z,98814.8
2023-03-19T04:05:28.906Z,98816.3
2023-03-19T04:11:27.975Z,98824.1
2023-03-19T04:17:10.618Z,98826.5
2023-03-19T04:23:23.549Z,98829.9
2023-03-19T04:29:07.907Z,98834.8
2023-03-19T04:34:42.862Z,98834
2023-03-19T04:41:15.047Z,98845.2
2023-03-19T04:46:49.976Z,98848
2023-03-19T04:52:30.702Z,98857.8
2023-03-19T04:58:28.074Z,98863.7
2023-03-19T05:04:13.229Z,98871
2023-03-19T05:09:49.757Z,98874.8
2023-03-19T05:15:25.019Z,98879.9
2023-03-19T05:21:01.121Z,98889.2
2023-03-19T05:26:36.363Z,98892
2023-03-19T05:32:12.506Z,98898.6
2023-03-19T05:38:01.629Z,98906.7
2023-03-19T05:44:01.001Z,98911.3
2023-03-19T05:49:54.629Z,98912.9
2023-03-19T05:56:11.853Z,98925.7
2023-03-19T06:01:52.668Z,98928.9
2023-03-19T06:07:28.785Z,98930.9
2023-03-19T06:13:07.546Z,98934.6
2023-03-19T06:18:46.215Z,98945.7
2023-03-19T06:24:21.437Z,98948.6
2023-03-19T06:30:01.802Z,98955.1
2023-03-19T06:35:46.561Z,98963
2023-03-19T06:41:21.950Z,98968.4
2023-03-19T06:47:00.022Z,98977.6
2023-03-19T06:52:36.639Z,98984.4
2023-03-19T06:58:20.782Z,98991.9
2023-03-19T07:04:05.481Z,98997.1
2023-03-19T07:09:40.874Z,99006.9
2023-03-19T07:15:26.376Z,99019.7
2023-03-19T07:21:33.145Z,99021.6
2023-03-19T07:27:30.568Z,99033.2
2023-03-19T07:33:12.851Z,99040.2
2023-03-19T07:38:50.368Z,99051.4
2023-03-19T07:44:41.168Z,99057.3
2023-03-19T07:50:18.924Z,99060.9
2023-03-19T07:56:04.569Z,99065.9
2023-03-19T08:01:39.578Z,99079
2023-03-19T08:07:22.812Z,99090.6
2023-03-19T08:12:58.234Z,99103.2
2023-03-19T08:18:33.744Z,99113.5
2023-03-19T08:24:11.932Z,99123.1
2023-03-19T08:30:06.531Z,99132.5
2023-03-19T08:35:42.287Z,99134.8
2023-03-19T08:41:24.446Z,99143.1
2023-03-19T08:47:03.083Z,99141.7
2023-03-19T08:52:39.219Z,99149
2023-03-19T08:58:14.514Z,99159.8
2023-03-19T09:03:50.369Z,99154.4
2023-03-19T09:09:27.194Z,99160.5
2023-03-19T09:15:02.989Z,99167.3
2023-03-19T09:20:39.458Z,99165.9
2023-03-19T09:26:14.980Z,99177
2023-03-19T09:31:59.064Z,99175.9
2023-03-19T09:37:42.223Z,99173.7
2023-03-19T09:43:21.545Z,99175.7
2023-03-19T09:49:01.326Z,99183.8
2023-03-19T09:54:49.439Z,99183
2023-03-19T10:00:27.289Z,99191.1
2023-03-19T10:06:02.417Z,99188.9
2023-03-19T10:11:40.464Z,99195.8
2023-03-19T10:17:21.841Z,99192.4
2023-03-19T10:23:03.834Z,99197
2023-03-19T10:28:39.530Z,99195.9
2023-03-19T10:34:17.144Z,99189.6
2023-03-19T10:40:00.954Z,99192.7
2023-03-19T10:45:48.637Z,99189.6
2023-03-19T10:51:24.478Z,99200.8
2023-03-19T10:57:01.922Z,99196.4
2023-03-19T11:02:48.781Z,99193.9
2023-03-19T11:08:36.557Z,99203.1
2023-03-19T11:14:23.680Z,99208.6
2023-03-19T11:20:12.687Z,99209.1
2023-03-19T11:25:48.834Z,99206.9
2023-03-19T11:31:26.173Z,99211.5
2023-03-19T11:37:10.215Z,99208.7
2023-03-19T11:42:49.076Z,99212.1
2023-03-19T11:48:27.606Z,99213.1
2023-03-19T11:54:45.900Z,99204.7
2023-03-19T12:00:23.502Z,99211.3
2023-03-19T12:06:07.975Z,99210.7
2023-03-19T12:11:46.749Z,99210.1
2023-03-19T12:17:22.179Z,99210.6
2023-03-19T12:23:19.106Z,99211.3
2023-03-19T12:28:59.074Z,99204.8
2023-03-19T12:34:34.530Z,99197.2
2023-03-19T12:40:27.898Z,99194.1
2023-03-19T12:46:13.140Z,99191.3
2023-03-19T12:51:49.791Z,99184.9
2023-03-19T12:57:46.248Z,99170.2
2023-03-19T13:03:30.559Z,99169.5
2023-03-19T13:09:05.997Z,99163.9
2023-03-19T13:14:47.419Z,99164.2
2023-03-19T13:20:26.176Z,99168.7
2023-03-19T13:26:03.342Z,99162.3
2023-03-19T13:31:59.864Z,99159.9
2023-03-19T13:37:47.053Z,99164.1
2023-03-19T13:43:34.218Z,99152.2
2023-03-19T13:49:09.295Z,99168.4
2023-03-19T13:55:06.247Z,99172.2
2023-03-19T14:00:40.088Z,99174.2
2023-03-19T14:06:22.133Z,99177.6
2023-03-19T14:11:58.105Z,99167.9
2023-03-19T14:18:12.061Z,99167.7
2023-03-19T14:23:53.200Z,99165.5
2023-03-19T14:29:32.834Z,99153.8
2023-03-19T14:35:29.509Z,99162.2
2023-03-19T14:41:09.842Z,99158.4
2023-03-19T14:46:53.960Z,99152.5
2023-03-19T14:52:48.201Z,99154.8
2023-03-19T14:58:23.292Z,99153.4
2023-03-19T15:04:08.116Z,99144.2
2023-03-19T15:09:46.435Z,99138.3
2023-03-19T15:15:25.874Z,99142.6
2023-03-19T15:21:02.513Z,99136.4
2023-03-19T15:26:37.685Z,99143.2
2023-03-19T15:32:18.643Z,99149.5
2023-03-19T15:37:54.746Z,99153.4
2023-03-19T15:43:29.654Z,99155.2
2023-03-19T15:49:04.655Z,99146.8
2023-03-19T15:55:03.648Z,99146.4
2023-03-19T16:00:41.245Z,99151.4
2023-03-19T16:06:18.878Z,99152.1
2023-03-19T16:11:56.144Z,99155.4
2023-03-19T16:17:36.153Z,99156.4
2023-03-19T16:23:33.245Z,99155.5
2023-03-19T16:29:31.766Z,99160.6
2023-03-19T16:35:26.160Z,99166.3
2023-03-19T16:41:06.214Z,99164.3
2023-03-19T16:46:51.682Z,99172.4
2023-03-19T16:52:31.900Z,99181.9
2023-03-19T16:58:09.795Z,99182.7
2023-03-19T17:03:49.609Z,99187.5
2023-03-19T17:09:30.075Z,99195.3
2023-03-19T17:15:04.805Z,99204.2
2023-03-19T17:20:43.489Z,99207.6
2023-03-19T17:26:26.267Z,99215.7
2023-03-19T17:32:06.435Z,99216
2023-03-19T17:37:42.366Z,99228.8
2023-03-19T17:43:25.418Z,99231.3
2023-03-19T17:49:08.569Z,99232.5
2023-03-19T17:55:06.474Z,99240.3
2023-03-19T18:00:40.173Z,99239.2
2023-03-19T18:06:16.788Z,99247.3
2023-03-19T18:11:53.415Z,99251.1
2023-03-19T18:17:28.417Z,99257
2023-03-19T18:23:03.388Z,99256.3
2023-03-19T18:28:40.226Z,99268
2023-03-19T18:34:15.346Z,99270.2
2023-03-19T18:39:50.185Z,99278.8
2023-03-19T18:45:25.907Z,99280.7
2023-03-19T18:51:14.836Z,99285.9
2023-03-19T18:56:53.848Z,99290.6
2023-03-19T19:02:30.101Z,99290.6
2023-03-19T19:08:14.179Z,99300.1
2023-03-19T19:14:13.253Z,99304.1
2023-03-19T19:19:48.808Z,99313.4
2023-03-19T19:25:46.947Z,99322.9
2023-03-19T19:31:26.651Z,99324.4
2023-03-19T19:37:02.642Z,99324
2023-03-19T19:42:37.596Z,99324.2
2023-03-19T19:48:14.680Z,99325.1
2023-03-19T19:53:49.653Z,99329.6
2023-03-19T19:59:29.044Z,99334.9
2023-03-19T20:05:14.091Z,99346.3
2023-03-19T20:10:49.263Z,99341.3
2023-03-19T20:16:25.105Z,99350.8
2023-03-19T20:22:01.405Z,99352.8
2023-03-19T20:27:36.884Z,99355.3
2023-03-19T20:33:28.426Z,99356.2
2023-03-19T20:39:08.292Z,99357.2
2023-03-19T20:44:46.453Z,99357.8
2023-03-19T20:50:27.991Z,99365.7
2023-03-19T20:56:04.301Z,99371
2023-03-19T21:01:39.844Z,99376.9
2023-03-19T21:07:16.153Z,99378
2023-03-19T21:12:51.272Z,99375.1
2023-03-19T21:18:27.744Z,99381.2
2023-03-19T21:24:09.027Z,99385.7
2023-03-19T21:29:43.867Z,99390.9
2023-03-19T21:35:21.213Z,99394.2
2023-03-19T21:41:16.867Z,99395.6
2023-03-19T21:46:57.697Z,99392.4
2023-03-19T21:53:21.110Z,99393
2023-03-19T21:59:00.474Z,99394.2
2023-03-19T22:04:35.648Z,99392.2
2023-03-19T22:10:11.451Z,99394.3
2023-03-19T22:15:51.687Z,99387.4
2023-03-19T22:21:28.080Z,99381.9
2023-03-19T22:27:03.976Z,99373.3
2023-03-19T22:32:39.761Z,99375.1
2023-03-19T22:38:16.447Z,99373.8
2023-03-19T22:43:53.072Z,99367.6
2023-03-19T22:49:28.128Z,99364
2023-03-19T22:55:12.987Z,99350.9
2023-03-19T23:00:52.044Z,99345.9
2023-03-19T23:06:46.323Z,99347.9
2023-03-19T23:12:26.707Z,99342.4
2023-03-19T23:18:09.860Z,99336.7
2023-03-19T23:23:47.821Z,99336.9
2023-03-19T23:29:28.330Z,99328.7
2023-03-19T23:35:11.949Z,99325.9
2023-03-19T23:40:56.517Z,99322.3
2023-03-19T23:46:32.405Z,99320.8
2023-03-19T23:52:17.445Z,99314.3
2023-03-19T23:57:55.939Z,99313.2
